Adrian, OR

8:57 PM MDT on August 26, 2016 (GMT -0600)
Homedale 3SW | | Change Station

Elev 2365 ft 43.57 °N, 116.97 °W | Updated 43 seconds ago

Clear
Clear
73.1 °F
Feels Like 77 °F
N
0.0
Wind Variable Wind from ESE
Gusts 3.0 mph

Today
High -- | Low -- °F
--% Chance of Precip.
Yesterday
High -- | Low -- °F
Precip. -- in
Pressure 29.85 in
Visibility 10.0 miles
Clouds Clear
Heat Index 77 °F
Dew Point 42 °F
Humidity 33%
Rainfall 0.00 in
Snow Depth Not available.
7:05 AM 8:33 PM
Waning Crescent, 29% visible
METAR KEUL 270256Z AUTO 00000KT 10SM CLR 23/03 A2989 RMK AO2 SLP106 T02330033 55006
Pressure 29.85 in
Visibility 10.0 miles
Clouds Clear
Heat Index 77 °F
Dew Point 42 °F
Humidity 33%
Rainfall 0.00 in
Snow Depth Not available.
7:05 AM 8:33 PM
Waning Crescent, 29% visible
METAR KEUL 270256Z AUTO 00000KT 10SM CLR 23/03 A2989 RMK AO2 SLP106 T02330033 55006

10-Day Weather Forecast

Almanac

Astronomy

Aug. 26, 2016 Rise Set
Actual Time
Civil Twilight
Nautical Twilight
Astronomical Twilight
Moon
Length of Visible Light
Length of Day
Tomorrow will be .
, % of the Moon is Illuminated

Today's Extremes

State Highs State Lows

Community

WunderPhotos

Upload Photos

1,935,281 photos uploaded!

WunderBlog® & News

Nearby

Air Quality

  Air Quality AQ Index Pollutant
Not available.

Snow Depth

Station Depth Elevation

Earthquake Activity

City Distance Mag. Time & Date
Minimum magnitude displayed is 2.5.

Coastal Water Temperatures

Place Temperature

Stations

Nearby Weather Stations

Station Location Temp. Windchill Dew Point Humidity Wind Precip. Elev Updated Type
                   

Watches & Warnings

There are currently no watches in effect.